Home   Weather   Ehlhalten   Past weeks
Flag for Germany

Past Weather in Ehlhalten, Hesse, Germany — October 2020

Currently: 34 °F. Overcast. (Weather station: Frankfurt-M-Flughafen Airport, Germany). See more current weather

October 2020 Weather in Ehlhalten — Graph

°F

High & Low Weather Summary for October 2020

 TemperatureHumidityPressure
High70 °F (Oct 22, 2:20 pm)100% (Oct 1, 12:50 am)30.27 "Hg (Oct 1, 12:50 am)
Low34 °F (Oct 18, 3:20 am)44% (Oct 10, 3:20 pm)29.15 "Hg (Oct 3, 3:20 am)
Average52 °F82%29.90 "Hg
* Reported Oct 1 12:20 am — Oct 31 11:50 pm, Ehlhalten. Weather by CustomWeather, © 2022

Note: Actual official high and low records may vary slightly from our data, if they occured in-between our weather recording intervals... More about our weather records

Ehlhalten Weather History for October 1, 2020

Scroll right to see more
 ConditionsComfort  
Time TempWeatherWind HumidityBarometerVisibility
12:20 am
Thu, Oct 1
54 °FPassing clouds.7 mph94%29.86 "HgN/A
12:50 am52 °FPassing clouds.3 mph100%29.86 "HgN/A
1:20 am50 °FPassing clouds.5 mph94%29.86 "HgN/A
1:50 am50 °FPassing clouds.6 mph100%29.83 "HgN/A
2:20 am52 °FPassing clouds.5 mph94%29.83 "HgN/A
2:50 am50 °FPassing clouds.5 mph94%29.80 "HgN/A
3:20 am50 °FPassing clouds.6 mph94%29.80 "HgN/A
3:50 am50 °FPassing clouds.5 mph94%29.77 "HgN/A
4:20 am48 °FPassing clouds.5 mph100%29.77 "HgN/A
4:50 am50 °FPassing clouds.6 mph94%29.77 "HgN/A
5:20 am50 °FPassing clouds.5 mph94%29.77 "HgN/A
5:50 am48 °FPassing clouds.3 mph94%29.74 "HgN/A
6:20 am48 °FPassing clouds.5 mph100%29.74 "HgN/A
6:50 am48 °FPassing clouds.3 mph94%29.74 "HgN/A
7:20 am48 °FPassing clouds.2 mph94%29.71 "HgN/A
7:50 am48 °FSunny.2 mph94%29.71 "Hg10 mi
8:20 am50 °FSunny.3 mph94%29.71 "Hg10 mi
8:50 am52 °FScattered clouds.6 mph94%29.71 "HgN/A
9:20 am54 °FBroken clouds.3 mph88%29.71 "HgN/A
9:50 am54 °FPartly sunny.1 mph88%29.71 "HgN/A
10:20 am54 °FBroken clouds.2 mph88%29.68 "HgN/A
10:50 am55 °FBroken clouds.2 mph88%29.68 "HgN/A
11:20 am57 °FScattered clouds.2 mph82%29.68 "HgN/A
11:50 am59 °FPartly sunny.7 mph82%29.68 "HgN/A
12:20 pm61 °FScattered clouds.7 mph72%29.68 "HgN/A
12:50 pm61 °FPassing clouds.6 mph77%29.65 "HgN/A
1:20 pm61 °FPassing clouds.5 mph72%29.65 "HgN/A
1:50 pm63 °FPassing clouds.6 mph73%29.65 "HgN/A
2:20 pm63 °FScattered clouds.6 mph73%29.62 "HgN/A
2:50 pm63 °FScattered clouds.6 mph68%29.62 "HgN/A
3:20 pm63 °FPassing clouds.6 mph68%29.62 "HgN/A
3:50 pm63 °FPassing clouds.6 mph68%29.62 "HgN/A
4:20 pm61 °FLight rain. Scattered clouds.6 mph77%29.62 "HgN/A
4:50 pm59 °FLight rain. Scattered clouds.7 mph88%29.62 "HgN/A
5:20 pm59 °FLight rain. Scattered clouds.10 mph88%29.62 "HgN/A
5:50 pm59 °FLight rain. Passing clouds.9 mph88%29.62 "HgN/A
6:20 pm57 °FPassing clouds.9 mph94%29.62 "HgN/A
6:50 pm57 °FPassing clouds.8 mph94%29.62 "HgN/A
7:20 pm57 °FPassing clouds.8 mph94%29.62 "HgN/A
7:50 pm57 °FPassing clouds.7 mph88%29.62 "HgN/A
8:20 pm55 °FPassing clouds.6 mph94%29.62 "HgN/A
8:50 pm55 °FPassing clouds.7 mph94%29.62 "HgN/A
9:20 pm55 °FPassing clouds.7 mph94%29.62 "HgN/A
9:50 pm55 °FPassing clouds.7 mph94%29.62 "HgN/A
10:20 pm55 °FSprinkles. Passing clouds.6 mph94%29.62 "HgN/A
10:50 pm55 °FPassing clouds.6 mph88%29.62 "HgN/A
11:20 pm54 °FPassing clouds.7 mph94%29.59 "HgN/A
11:50 pm52 °FPassing clouds.3 mph94%29.59 "HgN/A
Weather by CustomWeather, © 2022

See weather overview